createdAt,value
2023-03-15T00:01:29.128Z,4.60
2023-03-15T00:03:55.758Z,4.40
2023-03-15T00:06:22.463Z,4.60
2023-03-15T00:08:49.063Z,4.50
2023-03-15T00:11:16.086Z,4.40
2023-03-15T00:13:45.188Z,4.40
2023-03-15T00:16:12.196Z,4.30
2023-03-15T00:18:38.819Z,4.30
2023-03-15T00:21:05.441Z,4.30
2023-03-15T00:23:32.029Z,4.30
2023-03-15T00:26:00.831Z,4.20
2023-03-15T00:28:27.518Z,4.10
2023-03-15T00:31:09.253Z,4.20
2023-03-15T00:33:36.027Z,4.20
2023-03-15T00:36:06.620Z,4.20
2023-03-15T00:38:33.972Z,4.30
2023-03-15T00:41:16.878Z,4.10
2023-03-15T00:43:44.050Z,4.10
2023-03-15T00:46:11.072Z,4.10
2023-03-15T00:48:40.211Z,4.20
2023-03-15T00:51:06.794Z,4.00
2023-03-15T00:53:35.854Z,3.90
2023-03-15T00:56:06.381Z,3.90
2023-03-15T00:58:32.922Z,3.80
2023-03-15T01:01:00.656Z,3.80
2023-03-15T01:03:28.095Z,3.90
2023-03-15T01:05:54.657Z,3.80
2023-03-15T01:08:24.101Z,3.70
2023-03-15T01:10:50.670Z,3.80
2023-03-15T01:13:17.234Z,3.70
2023-03-15T01:15:47.697Z,3.70
2023-03-15T01:18:14.256Z,3.80
2023-03-15T01:20:42.438Z,3.70
2023-03-15T01:23:08.996Z,3.60
2023-03-15T01:25:37.777Z,3.50
2023-03-15T01:28:04.360Z,3.70
2023-03-15T01:30:30.937Z,3.60
2023-03-15T01:32:57.528Z,3.50
2023-03-15T01:35:24.093Z,3.60
2023-03-15T01:37:53.370Z,3.60
2023-03-15T01:40:22.099Z,3.40
2023-03-15T01:43:01.016Z,3.50
2023-03-15T01:45:46.042Z,3.20
2023-03-15T01:48:12.653Z,3.10
2023-03-15T01:50:39.233Z,3.10
2023-03-15T01:53:05.958Z,3.20
2023-03-15T01:55:32.545Z,3.50
2023-03-15T01:58:00.488Z,3.30
2023-03-15T02:00:27.591Z,3.50
2023-03-15T02:03:10.111Z,3.30
2023-03-15T02:05:38.588Z,3.30
2023-03-15T02:08:07.058Z,3.30
2023-03-15T02:10:36.917Z,3.40
2023-03-15T02:13:03.607Z,3.30
2023-03-15T02:15:32.683Z,3.30
2023-03-15T02:17:59.277Z,3.10
2023-03-15T02:20:45.471Z,3.30
2023-03-15T02:23:13.573Z,3.20
2023-03-15T02:25:51.621Z,3.20
2023-03-15T02:28:18.668Z,3.20
2023-03-15T02:30:48.092Z,3.00
2023-03-15T02:33:34.887Z,3.00
2023-03-15T02:36:21.827Z,3.00
2023-03-15T02:38:49.128Z,3.20
2023-03-15T02:41:17.876Z,2.90
2023-03-15T02:43:45.363Z,3.10
2023-03-15T02:46:12.528Z,3.00
2023-03-15T02:48:40.518Z,3.00
2023-03-15T02:51:07.091Z,2.90
2023-03-15T02:53:34.030Z,3.10
2023-03-15T02:56:00.584Z,2.90
2023-03-15T02:58:27.167Z,3.00
2023-03-15T03:00:56.304Z,2.90
2023-03-15T03:03:22.896Z,3.00
2023-03-15T03:05:49.505Z,3.00
2023-03-15T03:08:16.487Z,3.00
2023-03-15T03:10:43.410Z,3.00
2023-03-15T03:13:09.995Z,2.90
2023-03-15T03:15:36.656Z,2.90
2023-03-15T03:18:03.498Z,3.00
2023-03-15T03:20:30.086Z,2.90
2023-03-15T03:22:56.696Z,2.90
2023-03-15T03:25:26.991Z,3.00
2023-03-15T03:27:56.952Z,3.20
2023-03-15T03:30:24.161Z,3.00
2023-03-15T03:32:51.190Z,3.20
2023-03-15T03:35:17.789Z,3.20
2023-03-15T03:37:44.341Z,3.20
2023-03-15T03:40:13.589Z,3.30
2023-03-15T03:42:40.229Z,3.10
2023-03-15T03:45:07.421Z,3.30
2023-03-15T03:47:34.144Z,3.20
2023-03-15T03:50:02.865Z,3.30
2023-03-15T03:52:29.470Z,3.20
2023-03-15T03:54:56.057Z,3.30
2023-03-15T03:57:22.623Z,3.50
2023-03-15T03:59:49.165Z,3.20
2023-03-15T04:02:15.781Z,3.10
2023-03-15T04:04:42.431Z,3.30
2023-03-15T04:07:09.069Z,3.30
2023-03-15T04:09:38.340Z,3.20
2023-03-15T04:12:05.383Z,3.20
2023-03-15T04:14:31.994Z,3.40
2023-03-15T04:17:03.717Z,3.30
2023-03-15T04:19:30.837Z,3.30
2023-03-15T04:21:57.433Z,3.20
2023-03-15T04:24:23.987Z,3.00
2023-03-15T04:26:50.564Z,3.40
2023-03-15T04:29:17.126Z,3.10
2023-03-15T04:31:43.716Z,3.10
2023-03-15T04:34:10.416Z,3.10
2023-03-15T04:36:39.105Z,3.40
2023-03-15T04:39:06.026Z,3.10
2023-03-15T04:41:34.730Z,3.20
2023-03-15T04:44:04.486Z,3.10
2023-03-15T04:46:31.903Z,3.20
2023-03-15T04:48:58.634Z,3.00
2023-03-15T04:51:25.218Z,3.10
2023-03-15T04:53:51.753Z,3.00
2023-03-15T04:56:18.515Z,3.10
2023-03-15T04:58:45.039Z,3.00
2023-03-15T05:01:11.759Z,2.90
2023-03-15T05:03:38.442Z,3.00
2023-03-15T05:06:08.072Z,3.10
2023-03-15T05:08:38.459Z,2.90
2023-03-15T05:11:05.524Z,3.10
2023-03-15T05:13:32.216Z,3.00
2023-03-15T05:15:58.852Z,3.20
2023-03-15T05:18:25.422Z,2.90
2023-03-15T05:20:51.977Z,2.90
2023-03-15T05:23:22.343Z,2.90
2023-03-15T05:25:54.022Z,3.00
2023-03-15T05:28:21.891Z,3.10
2023-03-15T05:30:48.518Z,2.90
2023-03-15T05:33:15.329Z,2.90
2023-03-15T05:35:44.281Z,2.70
2023-03-15T05:38:14.460Z,2.80
2023-03-15T05:40:44.541Z,2.70
2023-03-15T05:43:11.196Z,3.00
2023-03-15T05:45:38.260Z,2.90
2023-03-15T05:48:09.657Z,2.90
2023-03-15T05:50:36.202Z,3.00
2023-03-15T05:53:05.066Z,3.00
2023-03-15T05:55:35.973Z,2.90
2023-03-15T05:58:07.496Z,2.90
2023-03-15T06:00:34.173Z,3.00
2023-03-15T06:03:00.801Z,3.00
2023-03-15T06:05:27.383Z,3.00
2023-03-15T06:07:56.522Z,3.00
2023-03-15T06:10:23.186Z,3.20
2023-03-15T06:12:50.289Z,3.10
2023-03-15T06:15:17.262Z,2.90
2023-03-15T06:17:43.781Z,3.10
2023-03-15T06:20:10.713Z,3.30
2023-03-15T06:22:39.917Z,3.10
2023-03-15T06:25:06.962Z,3.00
2023-03-15T06:27:39.127Z,3.00
2023-03-15T06:30:06.058Z,3.10
2023-03-15T06:32:34.888Z,3.10
2023-03-15T06:35:01.456Z,3.00
2023-03-15T06:37:34.938Z,3.00
2023-03-15T06:40:05.907Z,2.90
2023-03-15T06:42:32.522Z,2.90
2023-03-15T06:44:59.104Z,3.30
2023-03-15T06:47:25.616Z,3.20
2023-03-15T06:49:56.751Z,3.10
2023-03-15T06:52:26.109Z,3.20
2023-03-15T06:54:52.788Z,3.30
2023-03-15T06:57:19.325Z,3.40
2023-03-15T06:59:45.878Z,3.50
2023-03-15T07:02:16.304Z,3.30
2023-03-15T07:04:44.609Z,3.40
2023-03-15T07:07:11.609Z,3.40
2023-03-15T07:09:40.767Z,3.10
2023-03-15T07:12:07.868Z,3.30
2023-03-15T07:14:34.793Z,3.30
2023-03-15T07:17:01.363Z,3.10
2023-03-15T07:19:27.918Z,3.20
2023-03-15T07:21:56.931Z,3.30
2023-03-15T07:24:27.264Z,3.20
2023-03-15T07:26:56.316Z,3.30
2023-03-15T07:29:23.686Z,3.00
2023-03-15T07:31:50.455Z,2.90
2023-03-15T07:34:19.670Z,3.10
2023-03-15T07:36:48.655Z,3.10
2023-03-15T07:39:17.876Z,3.30
2023-03-15T07:41:44.481Z,3.20
2023-03-15T07:44:13.488Z,3.40
2023-03-15T07:46:42.494Z,3.40
2023-03-15T07:49:09.045Z,3.10
2023-03-15T07:51:35.567Z,3.20
2023-03-15T07:54:02.180Z,3.50
2023-03-15T07:56:30.932Z,3.30
2023-03-15T07:58:57.442Z,3.30
2023-03-15T08:01:24.155Z,3.40
2023-03-15T08:03:50.716Z,3.40
2023-03-15T08:06:17.276Z,3.40
2023-03-15T08:08:43.822Z,3.70
2023-03-15T08:11:12.864Z,3.40
2023-03-15T08:13:39.425Z,3.60
2023-03-15T08:16:06.091Z,3.60
2023-03-15T08:18:32.659Z,3.70
2023-03-15T08:20:59.311Z,3.70
2023-03-15T08:23:26.221Z,3.60
2023-03-15T08:25:52.850Z,3.80
2023-03-15T08:28:19.444Z,3.90
2023-03-15T08:30:46.336Z,3.80
2023-03-15T08:33:12.967Z,3.90
2023-03-15T08:35:41.729Z,3.80
2023-03-15T08:38:11.313Z,3.90
2023-03-15T08:40:40.717Z,3.70
2023-03-15T08:43:09.724Z,3.80
2023-03-15T08:45:50.952Z,4.10
2023-03-15T08:48:17.888Z,3.90
2023-03-15T08:50:46.676Z,3.90
2023-03-15T08:53:13.226Z,4.30
2023-03-15T08:55:39.806Z,4.40
2023-03-15T08:58:06.368Z,4.60
2023-03-15T09:00:32.950Z,4.80
2023-03-15T09:03:01.975Z,5.00
2023-03-15T09:05:30.787Z,5.00
2023-03-15T09:07:57.333Z,5.20
2023-03-15T09:10:24.011Z,5.30
2023-03-15T09:12:53.529Z,5.40
2023-03-15T09:15:20.193Z,5.30
2023-03-15T09:17:48.433Z,5.60
2023-03-15T09:20:16.463Z,5.60
2023-03-15T09:22:43.722Z,5.70
2023-03-15T09:25:10.884Z,5.70
2023-03-15T09:27:37.450Z,5.90
2023-03-15T09:30:04.372Z,6.00
2023-03-15T09:32:36.077Z,5.90
2023-03-15T09:35:06.871Z,6.00
2023-03-15T09:37:33.753Z,6.20
2023-03-15T09:40:01.080Z,6.10
2023-03-15T09:42:46.654Z,6.00
2023-03-15T09:45:25.329Z,6.30
2023-03-15T09:47:59.874Z,6.30
2023-03-15T09:50:29.375Z,6.30
2023-03-15T09:52:57.365Z,6.30
2023-03-15T09:55:27.610Z,6.50
2023-03-15T09:57:55.455Z,6.50
2023-03-15T10:00:26.798Z,6.70
2023-03-15T10:03:06.973Z,6.80
2023-03-15T10:05:47.509Z,6.70
2023-03-15T10:08:18.452Z,6.70
2023-03-15T10:10:54.189Z,6.70
2023-03-15T10:13:35.746Z,6.60
2023-03-15T10:16:05.264Z,6.60
2023-03-15T10:19:06.760Z,6.30
2023-03-15T10:21:46.112Z,6.20
2023-03-15T10:24:20.693Z,6.10
2023-03-15T10:26:49.416Z,5.70
2023-03-15T10:29:17.440Z,5.90
2023-03-15T10:31:47.338Z,5.90
2023-03-15T10:34:14.760Z,6.00
2023-03-15T10:36:45.466Z,5.90
2023-03-15T10:39:12.835Z,6.10
2023-03-15T10:41:39.391Z,6.10
2023-03-15T10:44:17.269Z,6.30
2023-03-15T10:47:01.211Z,6.60
2023-03-15T10:49:36.560Z,6.70
2023-03-15T10:52:03.825Z,6.40
2023-03-15T10:54:31.881Z,6.40
2023-03-15T10:56:58.472Z,6.50
2023-03-15T10:59:29.524Z,6.30
2023-03-15T11:02:11.273Z,6.40
2023-03-15T11:04:47.266Z,6.30
2023-03-15T11:07:14.066Z,6.50
2023-03-15T11:09:42.713Z,6.50
2023-03-15T11:12:11.132Z,6.50
2023-03-15T11:14:39.362Z,6.40
2023-03-15T11:17:07.404Z,6.50
2023-03-15T11:19:38.712Z,6.30
2023-03-15T11:22:12.988Z,6.30
2023-03-15T11:24:40.100Z,6.40
2023-03-15T11:27:11.675Z,6.50
2023-03-15T11:29:39.957Z,6.80
2023-03-15T11:32:15.255Z,6.90
2023-03-15T11:34:47.165Z,7.00
2023-03-15T11:37:21.651Z,7.10
2023-03-15T11:40:01.748Z,7.20
2023-03-15T11:42:38.936Z,7.30
2023-03-15T11:45:11.332Z,7.30
2023-03-15T11:47:42.159Z,7.20
2023-03-15T11:50:11.794Z,7.20
2023-03-15T11:52:39.325Z,7.10
2023-03-15T11:55:06.037Z,7.20
2023-03-15T11:57:36.953Z,7.10
2023-03-15T12:00:19.983Z,7.20
2023-03-15T12:02:50.987Z,7.50
2023-03-15T12:05:37.804Z,7.40
2023-03-15T12:08:16.704Z,7.40
2023-03-15T12:10:46.365Z,7.20
2023-03-15T12:13:45.299Z,7.30
2023-03-15T12:16:12.180Z,7.50
2023-03-15T12:18:42.953Z,7.70
2023-03-15T12:21:09.593Z,7.80
2023-03-15T12:23:44.097Z,7.70
2023-03-15T12:26:16.993Z,7.70
2023-03-15T12:28:52.407Z,7.80
2023-03-15T12:31:19.562Z,8.00
2023-03-15T12:33:48.990Z,8.10
2023-03-15T12:36:19.006Z,8.20
2023-03-15T12:38:54.228Z,8.30
2023-03-15T12:41:41.153Z,8.30
2023-03-15T12:44:36.321Z,8.20
2023-03-15T12:47:03.643Z,8.20
2023-03-15T12:49:34.820Z,8.20
2023-03-15T12:52:03.109Z,8.20
2023-03-15T12:54:48.270Z,8.10
2023-03-15T12:57:21.528Z,8.20
2023-03-15T12:59:53.106Z,8.20
2023-03-15T13:02:41.730Z,8.30
2023-03-15T13:05:09.659Z,8.10
2023-03-15T13:07:51.330Z,8.30
2023-03-15T13:10:37.548Z,8.10
2023-03-15T13:13:06.846Z,8.20
2023-03-15T13:15:42.693Z,8.00
2023-03-15T13:18:29.692Z,8.00
2023-03-15T13:20:56.212Z,8.00
2023-03-15T13:23:29.778Z,8.00
2023-03-15T13:26:08.312Z,8.10
2023-03-15T13:28:38.121Z,8.10
2023-03-15T13:31:31.997Z,8.20
2023-03-15T13:34:10.760Z,8.00
2023-03-15T13:36:39.783Z,8.00
2023-03-15T13:39:11.268Z,8.00
2023-03-15T13:41:38.460Z,8.00
2023-03-15T13:44:12.495Z,7.90
2023-03-15T13:46:40.005Z,8.00
2023-03-15T13:49:06.940Z,7.90
2023-03-15T13:51:34.722Z,7.90
2023-03-15T13:54:04.080Z,7.90
2023-03-15T13:56:43.545Z,7.90
2023-03-15T13:59:15.590Z,8.00
2023-03-15T14:01:42.535Z,7.90
2023-03-15T14:04:12.834Z,7.90
2023-03-15T14:06:42.087Z,8.00
2023-03-15T14:09:17.260Z,7.90
2023-03-15T14:11:48.577Z,7.90
2023-03-15T14:14:27.091Z,7.80
2023-03-15T14:17:05.032Z,7.90
2023-03-15T14:19:33.148Z,8.10
2023-03-15T14:22:04.720Z,8.30
2023-03-15T14:24:36.757Z,8.30
2023-03-15T14:27:25.079Z,8.40
2023-03-15T14:29:51.685Z,8.40
2023-03-15T14:32:31.959Z,8.30
2023-03-15T14:35:18.821Z,8.00
2023-03-15T14:37:45.685Z,8.10
2023-03-15T14:40:34.812Z,8.10
2023-03-15T14:43:05.735Z,8.10
2023-03-15T14:45:33.422Z,8.30
2023-03-15T14:48:25.416Z,8.40
2023-03-15T14:50:52.062Z,8.50
2023-03-15T14:53:19.993Z,8.50
2023-03-15T14:55:46.609Z,8.40
2023-03-15T14:58:17.400Z,8.50
2023-03-15T15:00:46.185Z,8.40
2023-03-15T15:03:18.884Z,8.50
2023-03-15T15:05:47.959Z,8.60
2023-03-15T15:08:19.664Z,8.60
2023-03-15T15:10:46.915Z,8.80
2023-03-15T15:13:22.824Z,8.80
2023-03-15T15:15:56.086Z,8.80
2023-03-15T15:18:35.691Z,8.80
2023-03-15T15:21:13.508Z,8.80
2023-03-15T15:23:56.810Z,8.60
2023-03-15T15:26:27.858Z,8.70
2023-03-15T15:28:55.093Z,8.70
2023-03-15T15:31:22.651Z,8.80
2023-03-15T15:33:52.187Z,8.80
2023-03-15T15:36:22.046Z,8.80
2023-03-15T15:38:50.782Z,8.80
2023-03-15T15:41:37.609Z,8.80
2023-03-15T15:44:06.554Z,8.80
2023-03-15T15:46:35.770Z,8.80
2023-03-15T15:49:02.297Z,8.60
2023-03-15T15:51:35.449Z,8.50
2023-03-15T15:54:08.296Z,8.50
2023-03-15T15:56:37.045Z,8.20
2023-03-15T15:59:04.645Z,8.30
2023-03-15T16:01:31.667Z,8.20
2023-03-15T16:03:58.989Z,8.20
2023-03-15T16:06:25.637Z,8.30
2023-03-15T16:08:52.482Z,8.30
2023-03-15T16:11:19.877Z,8.10
2023-03-15T16:13:48.970Z,8.00
2023-03-15T16:16:16.433Z,8.00
2023-03-15T16:18:43.537Z,7.80
2023-03-15T16:21:13.500Z,7.90
2023-03-15T16:23:43.548Z,7.90
2023-03-15T16:26:13.939Z,7.90
2023-03-15T16:28:40.654Z,8.00
2023-03-15T16:31:12.402Z,7.90
2023-03-15T16:33:39.665Z,7.80
2023-03-15T16:36:06.547Z,7.70
2023-03-15T16:38:33.159Z,7.80
2023-03-15T16:41:00.176Z,7.70
2023-03-15T16:43:27.236Z,7.60
2023-03-15T16:45:58.536Z,7.60
2023-03-15T16:48:25.200Z,7.60
2023-03-15T16:50:51.753Z,7.70
2023-03-15T16:53:19.246Z,7.70
2023-03-15T16:55:45.807Z,7.60
2023-03-15T16:58:19.312Z,7.60
2023-03-15T17:00:47.867Z,7.60
2023-03-15T17:03:15.093Z,7.50
2023-03-15T17:05:42.696Z,7.60
2023-03-15T17:08:11.630Z,7.40
2023-03-15T17:10:39.895Z,7.30
2023-03-15T17:13:06.649Z,7.40
2023-03-15T17:15:33.256Z,7.10
2023-03-15T17:18:03.173Z,7.10
2023-03-15T17:20:29.765Z,7.10
2023-03-15T17:22:57.665Z,7.10
2023-03-15T17:25:24.653Z,7.30
2023-03-15T17:27:51.319Z,7.30
2023-03-15T17:30:20.534Z,7.00
2023-03-15T17:32:47.447Z,7.00
2023-03-15T17:35:17.727Z,6.70
2023-03-15T17:37:44.843Z,6.90
2023-03-15T17:40:22.537Z,7.10
2023-03-15T17:42:52.104Z,7.00
2023-03-15T17:45:22.368Z,6.90
2023-03-15T17:47:51.955Z,6.90
2023-03-15T17:50:18.889Z,6.90
2023-03-15T17:52:46.140Z,6.90
2023-03-15T17:55:17.015Z,6.60
2023-03-15T17:57:54.677Z,6.90
2023-03-15T18:00:23.119Z,6.70
2023-03-15T18:02:55.935Z,6.80
2023-03-15T18:05:27.179Z,6.70
2023-03-15T18:08:00.753Z,6.50
2023-03-15T18:10:35.097Z,6.60
2023-03-15T18:13:02.005Z,6.50
2023-03-15T18:15:28.654Z,6.40
2023-03-15T18:17:57.704Z,6.30
2023-03-15T18:20:26.197Z,6.30
2023-03-15T18:22:52.811Z,6.10
2023-03-15T18:25:21.020Z,6.00
2023-03-15T18:27:47.977Z,5.90
2023-03-15T18:30:17.802Z,6.10
2023-03-15T18:32:44.862Z,5.90
2023-03-15T18:35:16.079Z,6.10
2023-03-15T18:37:42.787Z,6.00
2023-03-15T18:40:10.379Z,6.00
2023-03-15T18:42:39.107Z,6.00
2023-03-15T18:45:06.053Z,5.80
2023-03-15T18:47:32.623Z,5.70
2023-03-15T18:50:10.027Z,5.60
2023-03-15T18:52:39.814Z,5.70
2023-03-15T18:55:12.394Z,5.40
2023-03-15T18:57:41.516Z,5.30
2023-03-15T19:00:13.470Z,5.20
2023-03-15T19:02:46.396Z,5.30
2023-03-15T19:05:13.800Z,5.40
2023-03-15T19:07:42.643Z,5.30
2023-03-15T19:10:10.835Z,5.20
2023-03-15T19:12:37.456Z,5.20
2023-03-15T19:15:05.585Z,5.20
2023-03-15T19:17:32.388Z,5.30
2023-03-15T19:19:59.050Z,5.20
2023-03-15T19:22:28.998Z,5.10
2023-03-15T19:24:55.575Z,5.00
2023-03-15T19:27:22.346Z,5.00
2023-03-15T19:29:51.186Z,5.00
2023-03-15T19:32:17.755Z,4.70
2023-03-15T19:34:49.042Z,4.80
2023-03-15T19:37:15.913Z,4.80
2023-03-15T19:39:42.494Z,4.70
2023-03-15T19:42:09.122Z,4.60
2023-03-15T19:44:36.074Z,4.70
2023-03-15T19:47:02.816Z,4.70
2023-03-15T19:49:29.453Z,4.80
2023-03-15T19:51:58.244Z,4.50
2023-03-15T19:54:24.827Z,4.40
2023-03-15T19:56:51.628Z,4.50
2023-03-15T19:59:18.185Z,4.60
2023-03-15T20:01:44.789Z,4.30
2023-03-15T20:04:11.409Z,4.20
2023-03-15T20:06:38.957Z,4.40
2023-03-15T20:09:05.885Z,4.50
2023-03-15T20:11:32.566Z,4.40
2023-03-15T20:13:59.212Z,4.30
2023-03-15T20:16:25.917Z,4.30
2023-03-15T20:18:53.529Z,4.10
2023-03-15T20:21:20.374Z,4.10
2023-03-15T20:23:51.709Z,4.00
2023-03-15T20:26:18.409Z,4.00
2023-03-15T20:28:45.477Z,4.10
2023-03-15T20:31:13.950Z,4.00
2023-03-15T20:33:40.662Z,4.10
2023-03-15T20:36:07.632Z,3.80
2023-03-15T20:38:34.688Z,3.70
2023-03-15T20:41:03.723Z,3.80
2023-03-15T20:43:32.971Z,3.60
2023-03-15T20:46:00.892Z,3.70
2023-03-15T20:48:30.149Z,3.60
2023-03-15T20:50:57.979Z,3.80
2023-03-15T20:53:25.136Z,3.50
2023-03-15T20:55:51.776Z,3.60
2023-03-15T20:58:18.375Z,3.70
2023-03-15T21:00:45.414Z,3.50
2023-03-15T21:03:13.132Z,3.40
2023-03-15T21:05:43.055Z,3.70
2023-03-15T21:08:09.856Z,3.50
2023-03-15T21:10:39.118Z,3.60
2023-03-15T21:13:10.282Z,3.60
2023-03-15T21:15:46.373Z,3.40
2023-03-15T21:18:16.827Z,3.50
2023-03-15T21:20:43.917Z,3.40
2023-03-15T21:23:11.040Z,3.30
2023-03-15T21:25:38.772Z,3.50
2023-03-15T21:28:05.306Z,3.30
2023-03-15T21:30:32.891Z,3.40
2023-03-15T21:33:00.035Z,3.30
2023-03-15T21:35:26.731Z,3.40
2023-03-15T21:37:53.366Z,3.30
2023-03-15T21:40:19.976Z,3.20
2023-03-15T21:42:47.878Z,3.40
2023-03-15T21:45:14.772Z,3.00
2023-03-15T21:47:41.489Z,3.10
2023-03-15T21:50:08.775Z,3.10
2023-03-15T21:52:35.368Z,3.00
2023-03-15T21:55:04.885Z,3.10
2023-03-15T21:57:33.677Z,2.80
2023-03-15T22:00:01.158Z,2.90
2023-03-15T22:02:27.769Z,2.60
2023-03-15T22:04:54.510Z,2.70
2023-03-15T22:07:21.134Z,2.70
2023-03-15T22:09:47.877Z,2.80
2023-03-15T22:12:15.594Z,2.60
2023-03-15T22:14:42.228Z,2.50
2023-03-15T22:17:08.913Z,2.70
2023-03-15T22:19:35.775Z,2.70
2023-03-15T22:22:02.376Z,2.60
2023-03-15T22:24:33.837Z,2.70
2023-03-15T22:27:02.880Z,2.70
2023-03-15T22:29:29.705Z,2.50
2023-03-15T22:31:56.503Z,2.40
2023-03-15T22:34:27.208Z,2.50
2023-03-15T22:36:56.248Z,2.40
2023-03-15T22:39:22.834Z,2.30
2023-03-15T22:41:49.387Z,1.80
2023-03-15T22:44:16.023Z,1.80
2023-03-15T22:46:45.039Z,1.90
2023-03-15T22:49:11.804Z,1.60
2023-03-15T22:51:42.991Z,1.10
2023-03-15T22:54:11.916Z,1.20
2023-03-15T22:56:40.937Z,0.90
2023-03-15T22:59:07.811Z,1.50
2023-03-15T23:01:34.516Z,1.50
2023-03-15T23:04:01.145Z,1.60
2023-03-15T23:06:27.693Z,1.70
2023-03-15T23:08:54.243Z,1.30
2023-03-15T23:11:20.918Z,1.40
2023-03-15T23:13:50.312Z,1.60
2023-03-15T23:16:17.313Z,1.50
2023-03-15T23:18:48.717Z,1.70
2023-03-15T23:21:17.426Z,1.80
2023-03-15T23:23:44.105Z,1.30
2023-03-15T23:26:12.757Z,1.20
2023-03-15T23:28:41.968Z,1.40
2023-03-15T23:31:08.833Z,1.50
2023-03-15T23:33:35.452Z,1.40
2023-03-15T23:36:02.622Z,1.50
2023-03-15T23:38:29.300Z,1.80
2023-03-15T23:40:56.711Z,1.80
2023-03-15T23:43:23.443Z,1.70
2023-03-15T23:45:54.478Z,1.80
2023-03-15T23:48:21.100Z,1.70
2023-03-15T23:50:53.145Z,1.80
2023-03-15T23:53:19.779Z,1.50
2023-03-15T23:55:46.605Z,1.30
2023-03-15T23:58:13.518Z,1.50
